sensor_id;sensor_type;location;lat;lon;timestamp;P1;durP1;ratioP1;P2;durP2;ratioP2
7479;SDS011;3781;42.272;22.658;2023-08-24T00:00:32;4.70;;;3.37;;
7479;SDS011;3781;42.272;22.658;2023-08-24T00:02:59;3.73;;;3.33;;
7479;SDS011;3781;42.272;22.658;2023-08-24T00:05:29;4.40;;;3.83;;
7479;SDS011;3781;42.272;22.658;2023-08-24T00:07:59;4.03;;;3.73;;
7479;SDS011;3781;42.272;22.658;2023-08-24T00:10:26;5.03;;;3.70;;
7479;SDS011;3781;42.272;22.658;2023-08-24T00:12:53;7.43;;;4.00;;
7479;SDS011;3781;42.272;22.658;2023-08-24T00:15:20;3.93;;;2.90;;
7479;SDS011;3781;42.272;22.658;2023-08-24T00:17:47;5.53;;;3.83;;
7479;SDS011;3781;42.272;22.658;2023-08-24T00:20:14;4.40;;;3.40;;
7479;SDS011;3781;42.272;22.658;2023-08-24T00:22:42;5.00;;;3.77;;
7479;SDS011;3781;42.272;22.658;2023-08-24T00:25:09;6.10;;;3.17;;
7479;SDS011;3781;42.272;22.658;2023-08-24T00:27:36;5.13;;;3.13;;
7479;SDS011;3781;42.272;22.658;2023-08-24T00:30:03;3.90;;;2.80;;
7479;SDS011;3781;42.272;22.658;2023-08-24T00:32:31;4.43;;;3.17;;
7479;SDS011;3781;42.272;22.658;2023-08-24T00:34:59;5.47;;;3.97;;
7479;SDS011;3781;42.272;22.658;2023-08-24T00:37:26;4.00;;;3.60;;
7479;SDS011;3781;42.272;22.658;2023-08-24T00:39:55;3.83;;;3.40;;
7479;SDS011;3781;42.272;22.658;2023-08-24T00:42:22;4.10;;;3.70;;
7479;SDS011;3781;42.272;22.658;2023-08-24T00:44:49;3.80;;;3.50;;
7479;SDS011;3781;42.272;22.658;2023-08-24T00:47:16;3.53;;;3.23;;
7479;SDS011;3781;42.272;22.658;2023-08-24T00:49:43;8.57;;;4.80;;
7479;SDS011;3781;42.272;22.658;2023-08-24T00:52:10;5.30;;;4.73;;
7479;SDS011;3781;42.272;22.658;2023-08-24T00:54:38;4.03;;;3.53;;
7479;SDS011;3781;42.272;22.658;2023-08-24T00:57:07;6.50;;;3.47;;
7479;SDS011;3781;42.272;22.658;2023-08-24T00:59:34;6.87;;;4.13;;
7479;SDS011;3781;42.272;22.658;2023-08-24T01:02:02;4.53;;;3.37;;
7479;SDS011;3781;42.272;22.658;2023-08-24T01:04:29;3.77;;;3.13;;
7479;SDS011;3781;42.272;22.658;2023-08-24T01:06:55;5.20;;;3.73;;
7479;SDS011;3781;42.272;22.658;2023-08-24T01:09:22;5.40;;;3.17;;
7479;SDS011;3781;42.272;22.658;2023-08-24T01:11:50;5.63;;;3.57;;
7479;SDS011;3781;42.272;22.658;2023-08-24T01:14:29;4.83;;;3.10;;
7479;SDS011;3781;42.272;22.658;2023-08-24T01:17:03;4.33;;;3.43;;
7479;SDS011;3781;42.272;22.658;2023-08-24T01:19:37;5.03;;;3.77;;
7479;SDS011;3781;42.272;22.658;2023-08-24T01:22:08;4.77;;;3.57;;
7479;SDS011;3781;42.272;22.658;2023-08-24T01:24:58;6.87;;;4.13;;
7479;SDS011;3781;42.272;22.658;2023-08-24T01:27:32;4.70;;;3.73;;
7479;SDS011;3781;42.272;22.658;2023-08-24T01:30:00;4.20;;;3.37;;
7479;SDS011;3781;42.272;22.658;2023-08-24T01:32:29;4.80;;;3.03;;
7479;SDS011;3781;42.272;22.658;2023-08-24T01:34:56;3.70;;;2.97;;
7479;SDS011;3781;42.272;22.658;2023-08-24T01:37:23;3.77;;;3.23;;
7479;SDS011;3781;42.272;22.658;2023-08-24T01:39:53;4.73;;;3.47;;
7479;SDS011;3781;42.272;22.658;2023-08-24T01:42:29;12.27;;;3.63;;
7479;SDS011;3781;42.272;22.658;2023-08-24T01:45:02;4.07;;;3.03;;
7479;SDS011;3781;42.272;22.658;2023-08-24T01:47:32;3.83;;;3.10;;
7479;SDS011;3781;42.272;22.658;2023-08-24T01:50:01;6.37;;;3.13;;
7479;SDS011;3781;42.272;22.658;2023-08-24T01:52:29;3.83;;;2.83;;
7479;SDS011;3781;42.272;22.658;2023-08-24T01:54:57;5.50;;;3.67;;
7479;SDS011;3781;42.272;22.658;2023-08-24T01:57:24;2.90;;;2.70;;
7479;SDS011;3781;42.272;22.658;2023-08-24T01:59:53;4.97;;;3.77;;
7479;SDS011;3781;42.272;22.658;2023-08-24T02:02:20;3.80;;;3.27;;
7479;SDS011;3781;42.272;22.658;2023-08-24T02:04:47;4.27;;;3.30;;
7479;SDS011;3781;42.272;22.658;2023-08-24T02:07:14;6.10;;;4.17;;
7479;SDS011;3781;42.272;22.658;2023-08-24T02:09:40;4.73;;;4.23;;
7479;SDS011;3781;42.272;22.658;2023-08-24T02:12:07;3.70;;;3.20;;
7479;SDS011;3781;42.272;22.658;2023-08-24T02:14:34;4.93;;;3.37;;
7479;SDS011;3781;42.272;22.658;2023-08-24T02:17:02;6.20;;;3.47;;
7479;SDS011;3781;42.272;22.658;2023-08-24T02:19:29;4.03;;;3.70;;
7479;SDS011;3781;42.272;22.658;2023-08-24T02:21:56;4.43;;;3.23;;
7479;SDS011;3781;42.272;22.658;2023-08-24T02:24:23;5.50;;;3.27;;
7479;SDS011;3781;42.272;22.658;2023-08-24T02:26:49;3.70;;;3.30;;
7479;SDS011;3781;42.272;22.658;2023-08-24T02:29:16;4.77;;;3.80;;
7479;SDS011;3781;42.272;22.658;2023-08-24T02:31:43;3.23;;;2.70;;
7479;SDS011;3781;42.272;22.658;2023-08-24T02:34:11;6.40;;;3.73;;
7479;SDS011;3781;42.272;22.658;2023-08-24T02:36:38;4.33;;;3.27;;
7479;SDS011;3781;42.272;22.658;2023-08-24T02:39:05;4.83;;;3.27;;
7479;SDS011;3781;42.272;22.658;2023-08-24T02:41:33;4.53;;;3.20;;
7479;SDS011;3781;42.272;22.658;2023-08-24T02:44:00;4.17;;;2.93;;
7479;SDS011;3781;42.272;22.658;2023-08-24T02:46:27;2.73;;;2.47;;
7479;SDS011;3781;42.272;22.658;2023-08-24T02:48:54;3.53;;;2.90;;
7479;SDS011;3781;42.272;22.658;2023-08-24T02:51:22;5.20;;;3.30;;
7479;SDS011;3781;42.272;22.658;2023-08-24T02:53:49;5.70;;;3.53;;
7479;SDS011;3781;42.272;22.658;2023-08-24T02:56:16;4.67;;;3.43;;
7479;SDS011;3781;42.272;22.658;2023-08-24T02:58:43;4.77;;;3.20;;
7479;SDS011;3781;42.272;22.658;2023-08-24T03:01:10;6.93;;;4.10;;
7479;SDS011;3781;42.272;22.658;2023-08-24T03:03:37;4.77;;;3.50;;
7479;SDS011;3781;42.272;22.658;2023-08-24T03:06:04;3.83;;;3.20;;
7479;SDS011;3781;42.272;22.658;2023-08-24T03:08:34;5.33;;;3.00;;
7479;SDS011;3781;42.272;22.658;2023-08-24T03:11:02;4.93;;;3.60;;
7479;SDS011;3781;42.272;22.658;2023-08-24T03:13:29;6.63;;;3.93;;
7479;SDS011;3781;42.272;22.658;2023-08-24T03:15:56;4.10;;;3.63;;
7479;SDS011;3781;42.272;22.658;2023-08-24T03:18:23;3.57;;;3.23;;
7479;SDS011;3781;42.272;22.658;2023-08-24T03:20:50;6.23;;;3.40;;
7479;SDS011;3781;42.272;22.658;2023-08-24T03:23:17;4.97;;;2.83;;
7479;SDS011;3781;42.272;22.658;2023-08-24T03:25:45;5.63;;;3.13;;
7479;SDS011;3781;42.272;22.658;2023-08-24T03:28:12;3.47;;;3.03;;
7479;SDS011;3781;42.272;22.658;2023-08-24T03:30:39;4.27;;;3.83;;
7479;SDS011;3781;42.272;22.658;2023-08-24T03:33:11;3.83;;;3.50;;
7479;SDS011;3781;42.272;22.658;2023-08-24T03:35:38;4.00;;;3.20;;
7479;SDS011;3781;42.272;22.658;2023-08-24T03:38:04;6.33;;;3.40;;
7479;SDS011;3781;42.272;22.658;2023-08-24T03:40:31;4.40;;;3.53;;
7479;SDS011;3781;42.272;22.658;2023-08-24T03:43:00;4.27;;;3.00;;
7479;SDS011;3781;42.272;22.658;2023-08-24T03:45:27;4.53;;;3.40;;
7479;SDS011;3781;42.272;22.658;2023-08-24T03:47:54;4.83;;;3.60;;
7479;SDS011;3781;42.272;22.658;2023-08-24T03:50:21;6.30;;;3.50;;
7479;SDS011;3781;42.272;22.658;2023-08-24T03:52:49;9.70;;;4.53;;
7479;SDS011;3781;42.272;22.658;2023-08-24T03:55:16;4.30;;;3.60;;
7479;SDS011;3781;42.272;22.658;2023-08-24T03:57:43;6.17;;;3.53;;
7479;SDS011;3781;42.272;22.658;2023-08-24T04:00:12;6.30;;;4.50;;
7479;SDS011;3781;42.272;22.658;2023-08-24T04:02:39;4.07;;;3.07;;
7479;SDS011;3781;42.272;22.658;2023-08-24T04:05:06;4.07;;;3.13;;
7479;SDS011;3781;42.272;22.658;2023-08-24T04:07:33;5.07;;;3.97;;
7479;SDS011;3781;42.272;22.658;2023-08-24T04:10:01;6.27;;;3.93;;
7479;SDS011;3781;42.272;22.658;2023-08-24T04:12:30;5.33;;;3.77;;
7479;SDS011;3781;42.272;22.658;2023-08-24T04:14:56;4.60;;;3.57;;
7479;SDS011;3781;42.272;22.658;2023-08-24T04:17:25;8.17;;;3.93;;
7479;SDS011;3781;42.272;22.658;2023-08-24T04:19:52;4.43;;;3.60;;
7479;SDS011;3781;42.272;22.658;2023-08-24T04:22:18;4.53;;;3.20;;
7479;SDS011;3781;42.272;22.658;2023-08-24T04:24:45;4.80;;;3.83;;
7479;SDS011;3781;42.272;22.658;2023-08-24T04:27:12;4.03;;;3.17;;
7479;SDS011;3781;42.272;22.658;2023-08-24T04:29:39;6.23;;;4.33;;
7479;SDS011;3781;42.272;22.658;2023-08-24T04:32:05;4.93;;;4.00;;
7479;SDS011;3781;42.272;22.658;2023-08-24T04:34:34;6.50;;;4.30;;
7479;SDS011;3781;42.272;22.658;2023-08-24T04:37:01;8.23;;;4.30;;
7479;SDS011;3781;42.272;22.658;2023-08-24T04:39:28;6.17;;;4.07;;
7479;SDS011;3781;42.272;22.658;2023-08-24T04:41:55;8.47;;;4.00;;
7479;SDS011;3781;42.272;22.658;2023-08-24T04:44:22;5.87;;;5.27;;
7479;SDS011;3781;42.272;22.658;2023-08-24T04:46:49;8.67;;;4.67;;
7479;SDS011;3781;42.272;22.658;2023-08-24T04:49:15;7.57;;;4.63;;
7479;SDS011;3781;42.272;22.658;2023-08-24T04:51:43;5.33;;;4.03;;
7479;SDS011;3781;42.272;22.658;2023-08-24T04:54:10;7.73;;;3.03;;
7479;SDS011;3781;42.272;22.658;2023-08-24T04:56:37;6.17;;;4.23;;
7479;SDS011;3781;42.272;22.658;2023-08-24T04:59:04;6.77;;;5.10;;
7479;SDS011;3781;42.272;22.658;2023-08-24T05:01:32;5.67;;;3.73;;
7479;SDS011;3781;42.272;22.658;2023-08-24T05:03:59;4.70;;;3.77;;
7479;SDS011;3781;42.272;22.658;2023-08-24T05:06:25;4.00;;;3.60;;
7479;SDS011;3781;42.272;22.658;2023-08-24T05:08:57;6.73;;;4.27;;
7479;SDS011;3781;42.272;22.658;2023-08-24T05:11:27;5.80;;;4.30;;
7479;SDS011;3781;42.272;22.658;2023-08-24T05:13:55;7.80;;;3.73;;
7479;SDS011;3781;42.272;22.658;2023-08-24T05:16:22;6.90;;;3.63;;
7479;SDS011;3781;42.272;22.658;2023-08-24T05:18:52;5.73;;;3.83;;
7479;SDS011;3781;42.272;22.658;2023-08-24T05:21:21;11.20;;;5.13;;
7479;SDS011;3781;42.272;22.658;2023-08-24T05:23:53;9.73;;;4.57;;
7479;SDS011;3781;42.272;22.658;2023-08-24T05:26:21;8.20;;;5.10;;
7479;SDS011;3781;42.272;22.658;2023-08-24T05:28:49;10.17;;;4.17;;
7479;SDS011;3781;42.272;22.658;2023-08-24T05:31:20;5.93;;;4.23;;
7479;SDS011;3781;42.272;22.658;2023-08-24T05:33:47;6.97;;;4.27;;
7479;SDS011;3781;42.272;22.658;2023-08-24T05:36:13;6.13;;;3.93;;
7479;SDS011;3781;42.272;22.658;2023-08-24T05:38:40;6.47;;;4.13;;
7479;SDS011;3781;42.272;22.658;2023-08-24T05:41:11;5.73;;;4.20;;
7479;SDS011;3781;42.272;22.658;2023-08-24T05:43:40;11.80;;;4.30;;
7479;SDS011;3781;42.272;22.658;2023-08-24T05:46:07;6.33;;;3.90;;
7479;SDS011;3781;42.272;22.658;2023-08-24T05:48:34;7.80;;;4.90;;
7479;SDS011;3781;42.272;22.658;2023-08-24T05:51:01;8.40;;;4.27;;
7479;SDS011;3781;42.272;22.658;2023-08-24T05:53:28;5.20;;;4.30;;
7479;SDS011;3781;42.272;22.658;2023-08-24T05:55:57;6.63;;;3.70;;
7479;SDS011;3781;42.272;22.658;2023-08-24T05:58:24;4.90;;;4.33;;
7479;SDS011;3781;42.272;22.658;2023-08-24T06:00:56;3.83;;;3.37;;
7479;SDS011;3781;42.272;22.658;2023-08-24T06:03:24;5.57;;;4.00;;
7479;SDS011;3781;42.272;22.658;2023-08-24T06:05:51;8.50;;;5.63;;
7479;SDS011;3781;42.272;22.658;2023-08-24T06:08:18;6.70;;;4.47;;
7479;SDS011;3781;42.272;22.658;2023-08-24T06:10:45;4.23;;;3.67;;
7479;SDS011;3781;42.272;22.658;2023-08-24T06:13:11;10.20;;;4.53;;
7479;SDS011;3781;42.272;22.658;2023-08-24T06:15:38;5.20;;;4.70;;
7479;SDS011;3781;42.272;22.658;2023-08-24T06:18:07;6.73;;;5.07;;
7479;SDS011;3781;42.272;22.658;2023-08-24T06:20:34;5.57;;;4.83;;
7479;SDS011;3781;42.272;22.658;2023-08-24T06:23:00;7.37;;;5.13;;
7479;SDS011;3781;42.272;22.658;2023-08-24T06:25:27;5.87;;;4.13;;
7479;SDS011;3781;42.272;22.658;2023-08-24T06:28:00;8.23;;;4.80;;
7479;SDS011;3781;42.272;22.658;2023-08-24T06:30:29;7.40;;;4.87;;
7479;SDS011;3781;42.272;22.658;2023-08-24T06:32:58;6.13;;;5.37;;
7479;SDS011;3781;42.272;22.658;2023-08-24T06:35:26;5.93;;;4.60;;
7479;SDS011;3781;42.272;22.658;2023-08-24T06:37:55;6.43;;;5.27;;
7479;SDS011;3781;42.272;22.658;2023-08-24T06:40:22;6.57;;;4.43;;
7479;SDS011;3781;42.272;22.658;2023-08-24T06:42:58;5.23;;;4.27;;
7479;SDS011;3781;42.272;22.658;2023-08-24T06:45:45;4.90;;;4.23;;
7479;SDS011;3781;42.272;22.658;2023-08-24T06:48:14;5.53;;;4.73;;
7479;SDS011;3781;42.272;22.658;2023-08-24T06:50:44;6.97;;;4.40;;
7479;SDS011;3781;42.272;22.658;2023-08-24T06:53:11;4.90;;;4.23;;
7479;SDS011;3781;42.272;22.658;2023-08-24T06:55:38;5.00;;;4.50;;
7479;SDS011;3781;42.272;22.658;2023-08-24T06:58:05;7.97;;;4.53;;
7479;SDS011;3781;42.272;22.658;2023-08-24T07:00:43;5.03;;;4.23;;
7479;SDS011;3781;42.272;22.658;2023-08-24T07:03:10;6.30;;;4.63;;
7479;SDS011;3781;42.272;22.658;2023-08-24T07:05:36;8.37;;;5.37;;
7479;SDS011;3781;42.272;22.658;2023-08-24T07:08:05;7.20;;;4.93;;
7479;SDS011;3781;42.272;22.658;2023-08-24T07:10:32;5.13;;;4.27;;
7479;SDS011;3781;42.272;22.658;2023-08-24T07:12:59;6.37;;;4.90;;
7479;SDS011;3781;42.272;22.658;2023-08-24T07:15:25;10.73;;;4.93;;
7479;SDS011;3781;42.272;22.658;2023-08-24T07:17:52;4.63;;;4.23;;
7479;SDS011;3781;42.272;22.658;2023-08-24T07:20:19;5.87;;;4.50;;
7479;SDS011;3781;42.272;22.658;2023-08-24T07:22:46;9.07;;;4.50;;
7479;SDS011;3781;42.272;22.658;2023-08-24T07:25:14;5.40;;;4.03;;
7479;SDS011;3781;42.272;22.658;2023-08-24T07:27:42;7.40;;;4.87;;
7479;SDS011;3781;42.272;22.658;2023-08-24T07:30:09;7.77;;;4.20;;
7479;SDS011;3781;42.272;22.658;2023-08-24T07:32:37;6.40;;;5.23;;
7479;SDS011;3781;42.272;22.658;2023-08-24T07:35:04;6.27;;;4.53;;
7479;SDS011;3781;42.272;22.658;2023-08-24T07:37:31;4.40;;;3.97;;
7479;SDS011;3781;42.272;22.658;2023-08-24T07:39:58;7.70;;;5.07;;
7479;SDS011;3781;42.272;22.658;2023-08-24T07:42:26;8.93;;;4.20;;
7479;SDS011;3781;42.272;22.658;2023-08-24T07:44:53;6.70;;;4.72;;
7479;SDS011;3781;42.272;22.658;2023-08-24T07:47:20;5.30;;;4.53;;
7479;SDS011;3781;42.272;22.658;2023-08-24T07:49:47;5.03;;;3.92;;
7479;SDS011;3781;42.272;22.658;2023-08-24T07:52:13;5.65;;;4.20;;
7479;SDS011;3781;42.272;22.658;2023-08-24T07:54:40;6.78;;;4.45;;
7479;SDS011;3781;42.272;22.658;2023-08-24T07:57:07;8.95;;;4.63;;
7479;SDS011;3781;42.272;22.658;2023-08-24T07:59:35;6.05;;;4.65;;
7479;SDS011;3781;42.272;22.658;2023-08-24T08:02:02;7.72;;;5.10;;
7479;SDS011;3781;42.272;22.658;2023-08-24T08:04:29;4.53;;;4.13;;
7479;SDS011;3781;42.272;22.658;2023-08-24T08:06:55;5.85;;;4.78;;
7479;SDS011;3781;42.272;22.658;2023-08-24T08:09:22;4.32;;;3.92;;
7479;SDS011;3781;42.272;22.658;2023-08-24T08:11:49;5.82;;;4.13;;
7479;SDS011;3781;42.272;22.658;2023-08-24T08:14:15;5.25;;;4.13;;
7479;SDS011;3781;42.272;22.658;2023-08-24T08:16:44;5.57;;;4.55;;
7479;SDS011;3781;42.272;22.658;2023-08-24T08:19:10;6.55;;;5.28;;
7479;SDS011;3781;42.272;22.658;2023-08-24T08:21:37;5.53;;;4.85;;
7479;SDS011;3781;42.272;22.658;2023-08-24T08:24:04;7.88;;;3.72;;
7479;SDS011;3781;42.272;22.658;2023-08-24T08:26:31;5.30;;;4.78;;
7479;SDS011;3781;42.272;22.658;2023-08-24T08:28:57;5.90;;;4.00;;
7479;SDS011;3781;42.272;22.658;2023-08-24T08:31:24;4.07;;;3.67;;
7479;SDS011;3781;42.272;22.658;2023-08-24T08:33:52;4.80;;;4.30;;
7479;SDS011;3781;42.272;22.658;2023-08-24T08:36:19;4.55;;;4.15;;
7479;SDS011;3781;42.272;22.658;2023-08-24T08:38:46;5.05;;;4.05;;
7479;SDS011;3781;42.272;22.658;2023-08-24T08:41:13;6.30;;;3.90;;
7479;SDS011;3781;42.272;22.658;2023-08-24T08:43:43;4.50;;;3.78;;
7479;SDS011;3781;42.272;22.658;2023-08-24T08:46:10;4.35;;;3.95;;
7479;SDS011;3781;42.272;22.658;2023-08-24T08:48:39;4.90;;;4.50;;
7479;SDS011;3781;42.272;22.658;2023-08-24T08:51:07;5.47;;;3.80;;
7479;SDS011;3781;42.272;22.658;2023-08-24T08:53:35;3.80;;;3.50;;
7479;SDS011;3781;42.272;22.658;2023-08-24T08:56:02;4.82;;;4.40;;
7479;SDS011;3781;42.272;22.658;2023-08-24T08:58:30;4.88;;;4.07;;
7479;SDS011;3781;42.272;22.658;2023-08-24T09:00:57;4.78;;;4.38;;
7479;SDS011;3781;42.272;22.658;2023-08-24T09:03:25;3.88;;;3.58;;
7479;SDS011;3781;42.272;22.658;2023-08-24T09:05:55;4.20;;;3.90;;
7479;SDS011;3781;42.272;22.658;2023-08-24T09:08:24;3.80;;;3.50;;
7479;SDS011;3781;42.272;22.658;2023-08-24T09:10:53;4.95;;;3.70;;
7479;SDS011;3781;42.272;22.658;2023-08-24T09:13:20;5.15;;;4.15;;
7479;SDS011;3781;42.272;22.658;2023-08-24T09:15:47;4.25;;;3.72;;
7479;SDS011;3781;42.272;22.658;2023-08-24T09:18:17;4.85;;;4.40;;
7479;SDS011;3781;42.272;22.658;2023-08-24T09:20:44;4.32;;;3.97;;
7479;SDS011;3781;42.272;22.658;2023-08-24T09:23:17;4.82;;;4.43;;
7479;SDS011;3781;42.272;22.658;2023-08-24T09:25:46;5.07;;;4.57;;
7479;SDS011;3781;42.272;22.658;2023-08-24T09:28:15;4.43;;;4.03;;
7479;SDS011;3781;42.272;22.658;2023-08-24T09:30:52;4.50;;;4.13;;
7479;SDS011;3781;42.272;22.658;2023-08-24T09:33:20;5.32;;;4.82;;
7479;SDS011;3781;42.272;22.658;2023-08-24T09:35:51;5.55;;;4.75;;
7479;SDS011;3781;42.272;22.658;2023-08-24T09:38:19;3.80;;;3.55;;
7479;SDS011;3781;42.272;22.658;2023-08-24T09:40:49;4.95;;;4.55;;
7479;SDS011;3781;42.272;22.658;2023-08-24T09:43:17;4.50;;;4.10;;
7479;SDS011;3781;42.272;22.658;2023-08-24T09:45:47;6.30;;;4.63;;
7479;SDS011;3781;42.272;22.658;2023-08-24T09:48:15;4.35;;;4.00;;
7479;SDS011;3781;42.272;22.658;2023-08-24T09:50:42;4.57;;;4.18;;
7479;SDS011;3781;42.272;22.658;2023-08-24T09:53:11;4.15;;;3.75;;
7479;SDS011;3781;42.272;22.658;2023-08-24T09:55:44;5.97;;;5.00;;
7479;SDS011;3781;42.272;22.658;2023-08-24T09:58:17;5.43;;;4.88;;
7479;SDS011;3781;42.272;22.658;2023-08-24T10:00:45;4.57;;;4.18;;
7479;SDS011;3781;42.272;22.658;2023-08-24T10:03:13;5.30;;;4.18;;
7479;SDS011;3781;42.272;22.658;2023-08-24T10:05:44;5.30;;;4.35;;
7479;SDS011;3781;42.272;22.658;2023-08-24T10:08:11;4.35;;;3.95;;
7479;SDS011;3781;42.272;22.658;2023-08-24T10:10:42;5.13;;;4.72;;
7479;SDS011;3781;42.272;22.658;2023-08-24T10:13:11;4.82;;;4.43;;
7479;SDS011;3781;42.272;22.658;2023-08-24T10:15:46;4.25;;;3.85;;
7479;SDS011;3781;42.272;22.658;2023-08-24T10:18:14;4.28;;;3.88;;
7479;SDS011;3781;42.272;22.658;2023-08-24T10:20:42;4.50;;;4.10;;
7479;SDS011;3781;42.272;22.658;2023-08-24T10:23:10;4.50;;;4.05;;
7479;SDS011;3781;42.272;22.658;2023-08-24T10:25:40;3.45;;;3.15;;
7479;SDS011;3781;42.272;22.658;2023-08-24T10:28:08;5.28;;;4.45;;
7479;SDS011;3781;42.272;22.658;2023-08-24T10:30:36;3.97;;;3.63;;
7479;SDS011;3781;42.272;22.658;2023-08-24T10:33:06;4.38;;;4.07;;
7479;SDS011;3781;42.272;22.658;2023-08-24T10:35:33;3.92;;;3.40;;
7479;SDS011;3781;42.272;22.658;2023-08-24T10:38:00;4.97;;;4.00;;
7479;SDS011;3781;42.272;22.658;2023-08-24T10:40:31;4.55;;;4.05;;
7479;SDS011;3781;42.272;22.658;2023-08-24T10:43:02;4.70;;;4.30;;
7479;SDS011;3781;42.272;22.658;2023-08-24T10:45:42;4.13;;;3.78;;
7479;SDS011;3781;42.272;22.658;2023-08-24T10:48:22;4.22;;;3.92;;
7479;SDS011;3781;42.272;22.658;2023-08-24T10:53:45;4.30;;;3.95;;
7479;SDS011;3781;42.272;22.658;2023-08-24T10:56:13;7.38;;;3.70;;
7479;SDS011;3781;42.272;22.658;2023-08-24T10:58:41;4.10;;;3.67;;
7479;SDS011;3781;42.272;22.658;2023-08-24T11:01:14;3.10;;;2.90;;
7479;SDS011;3781;42.272;22.658;2023-08-24T11:03:46;3.22;;;3.00;;
7479;SDS011;3781;42.272;22.658;2023-08-24T11:06:20;3.83;;;3.42;;
7479;SDS011;3781;42.272;22.658;2023-08-24T11:08:48;3.90;;;3.45;;
7479;SDS011;3781;42.272;22.658;2023-08-24T11:11:18;3.58;;;3.05;;
7479;SDS011;3781;42.272;22.658;2023-08-24T11:16:39;4.57;;;3.50;;
7479;SDS011;3781;42.272;22.658;2023-08-24T11:19:15;4.15;;;3.78;;
7479;SDS011;3781;42.272;22.658;2023-08-24T11:21:43;5.82;;;4.65;;
7479;SDS011;3781;42.272;22.658;2023-08-24T11:24:12;4.55;;;4.03;;
7479;SDS011;3781;42.272;22.658;2023-08-24T11:26:41;4.00;;;3.63;;
7479;SDS011;3781;42.272;22.658;2023-08-24T11:29:09;3.75;;;3.45;;
7479;SDS011;3781;42.272;22.658;2023-08-24T11:31:36;4.88;;;4.10;;
7479;SDS011;3781;42.272;22.658;2023-08-24T11:34:03;3.33;;;3.13;;
7479;SDS011;3781;42.272;22.658;2023-08-24T11:36:37;5.50;;;3.97;;
7479;SDS011;3781;42.272;22.658;2023-08-24T11:39:13;5.50;;;3.95;;
7479;SDS011;3781;42.272;22.658;2023-08-24T11:44:43;3.22;;;2.95;;
7479;SDS011;3781;42.272;22.658;2023-08-24T11:47:14;5.70;;;4.63;;
7479;SDS011;3781;42.272;22.658;2023-08-24T11:49:42;2.78;;;2.55;;
7479;SDS011;3781;42.272;22.658;2023-08-24T11:52:10;3.03;;;2.03;;
7479;SDS011;3781;42.272;22.658;2023-08-24T11:54:41;1.58;;;1.48;;
7479;SDS011;3781;42.272;22.658;2023-08-24T11:57:07;1.42;;;1.33;;
7479;SDS011;3781;42.272;22.658;2023-08-24T11:59:35;1.85;;;1.65;;
7479;SDS011;3781;42.272;22.658;2023-08-24T12:02:02;2.80;;;2.60;;
7479;SDS011;3781;42.272;22.658;2023-08-24T12:04:37;3.53;;;2.73;;
7479;SDS011;3781;42.272;22.658;2023-08-24T12:07:08;2.55;;;2.33;;
7479;SDS011;3781;42.272;22.658;2023-08-24T12:09:40;2.40;;;2.20;;
7479;SDS011;3781;42.272;22.658;2023-08-24T12:12:11;4.07;;;2.65;;
7479;SDS011;3781;42.272;22.658;2023-08-24T12:14:41;2.75;;;2.55;;
7479;SDS011;3781;42.272;22.658;2023-08-24T12:17:08;4.88;;;3.03;;
7479;SDS011;3781;42.272;22.658;2023-08-24T12:19:35;3.42;;;2.47;;
7479;SDS011;3781;42.272;22.658;2023-08-24T12:22:02;2.88;;;2.67;;
7479;SDS011;3781;42.272;22.658;2023-08-24T17:21:01;4.33;;;3.17;;
7479;SDS011;3781;42.272;22.658;2023-08-24T17:23:28;4.10;;;3.37;;
7479;SDS011;3781;42.272;22.658;2023-08-24T17:25:55;6.90;;;3.07;;
7479;SDS011;3781;42.272;22.658;2023-08-24T17:28:22;5.37;;;2.87;;
7479;SDS011;3781;42.272;22.658;2023-08-24T17:30:49;4.17;;;2.80;;
7479;SDS011;3781;42.272;22.658;2023-08-24T17:45:17;8.37;;;2.87;;
7479;SDS011;3781;42.272;22.658;2023-08-24T17:47:47;5.30;;;3.07;;
7479;SDS011;3781;42.272;22.658;2023-08-24T17:50:14;3.10;;;2.53;;
7479;SDS011;3781;42.272;22.658;2023-08-24T17:52:41;5.13;;;3.17;;
7479;SDS011;3781;42.272;22.658;2023-08-24T17:55:08;5.43;;;3.47;;
7479;SDS011;3781;42.272;22.658;2023-08-24T17:57:35;5.93;;;3.03;;
7479;SDS011;3781;42.272;22.658;2023-08-24T18:00:02;4.40;;;3.37;;
7479;SDS011;3781;42.272;22.658;2023-08-24T18:02:32;3.03;;;2.53;;
7479;SDS011;3781;42.272;22.658;2023-08-24T18:04:59;3.13;;;2.43;;
7479;SDS011;3781;42.272;22.658;2023-08-24T18:07:25;5.20;;;3.70;;
7479;SDS011;3781;42.272;22.658;2023-08-24T18:09:52;4.83;;;2.77;;
7479;SDS011;3781;42.272;22.658;2023-08-24T18:12:22;7.27;;;3.57;;
7479;SDS011;3781;42.272;22.658;2023-08-24T18:14:49;5.17;;;3.80;;
7479;SDS011;3781;42.272;22.658;2023-08-24T18:17:16;4.37;;;3.87;;
7479;SDS011;3781;42.272;22.658;2023-08-24T18:19:44;4.63;;;2.70;;
7479;SDS011;3781;42.272;22.658;2023-08-24T18:22:11;4.57;;;3.67;;
7479;SDS011;3781;42.272;22.658;2023-08-24T18:24:38;3.70;;;2.83;;
7479;SDS011;3781;42.272;22.658;2023-08-24T18:27:05;4.80;;;2.73;;
7479;SDS011;3781;42.272;22.658;2023-08-24T18:29:32;5.20;;;3.57;;
7479;SDS011;3781;42.272;22.658;2023-08-24T18:32:01;6.60;;;3.80;;
7479;SDS011;3781;42.272;22.658;2023-08-24T18:34:28;4.33;;;3.93;;
7479;SDS011;3781;42.272;22.658;2023-08-24T18:36:56;6.37;;;3.70;;
7479;SDS011;3781;42.272;22.658;2023-08-24T18:39:23;3.77;;;3.00;;
7479;SDS011;3781;42.272;22.658;2023-08-24T18:41:50;4.17;;;3.43;;
7479;SDS011;3781;42.272;22.658;2023-08-24T18:44:17;3.10;;;2.80;;
7479;SDS011;3781;42.272;22.658;2023-08-24T18:46:44;6.07;;;2.70;;
7479;SDS011;3781;42.272;22.658;2023-08-24T18:49:12;5.47;;;3.63;;
7479;SDS011;3781;42.272;22.658;2023-08-24T18:51:39;4.47;;;3.50;;
7479;SDS011;3781;42.272;22.658;2023-08-24T18:54:08;4.27;;;3.70;;
7479;SDS011;3781;42.272;22.658;2023-08-24T18:56:41;5.13;;;3.83;;
7479;SDS011;3781;42.272;22.658;2023-08-24T18:59:31;4.67;;;3.43;;
7479;SDS011;3781;42.272;22.658;2023-08-24T19:01:58;4.87;;;3.73;;
7479;SDS011;3781;42.272;22.658;2023-08-24T19:04:25;3.37;;;3.07;;
7479;SDS011;3781;42.272;22.658;2023-08-24T19:06:52;4.30;;;2.93;;
7479;SDS011;3781;42.272;22.658;2023-08-24T19:09:27;4.47;;;3.60;;
7479;SDS011;3781;42.272;22.658;2023-08-24T19:11:57;4.47;;;3.00;;
7479;SDS011;3781;42.272;22.658;2023-08-24T19:14:28;3.97;;;3.57;;
7479;SDS011;3781;42.272;22.658;2023-08-24T19:16:59;3.97;;;2.77;;
7479;SDS011;3781;42.272;22.658;2023-08-24T19:19:28;5.67;;;3.47;;
7479;SDS011;3781;42.272;22.658;2023-08-24T19:21:55;4.37;;;3.70;;
7479;SDS011;3781;42.272;22.658;2023-08-24T19:24:23;3.73;;;2.70;;
7479;SDS011;3781;42.272;22.658;2023-08-24T19:26:51;3.93;;;3.13;;
7479;SDS011;3781;42.272;22.658;2023-08-24T19:29:21;4.40;;;3.40;;
7479;SDS011;3781;42.272;22.658;2023-08-24T19:31:48;5.03;;;3.83;;
7479;SDS011;3781;42.272;22.658;2023-08-24T19:34:15;5.93;;;3.90;;
7479;SDS011;3781;42.272;22.658;2023-08-24T19:36:42;5.20;;;4.20;;
7479;SDS011;3781;42.272;22.658;2023-08-24T19:39:10;4.10;;;3.57;;
7479;SDS011;3781;42.272;22.658;2023-08-24T19:41:37;5.00;;;3.60;;
7479;SDS011;3781;42.272;22.658;2023-08-24T19:44:06;5.70;;;3.87;;
7479;SDS011;3781;42.272;22.658;2023-08-24T19:46:34;7.33;;;4.40;;
7479;SDS011;3781;42.272;22.658;2023-08-24T19:49:00;4.90;;;3.53;;
7479;SDS011;3781;42.272;22.658;2023-08-24T19:51:29;5.33;;;4.33;;
7479;SDS011;3781;42.272;22.658;2023-08-24T19:53:56;4.07;;;3.30;;
7479;SDS011;3781;42.272;22.658;2023-08-24T19:56:24;6.43;;;3.80;;
7479;SDS011;3781;42.272;22.658;2023-08-24T19:58:51;7.83;;;4.87;;
7479;SDS011;3781;42.272;22.658;2023-08-24T20:01:19;4.47;;;3.87;;
7479;SDS011;3781;42.272;22.658;2023-08-24T20:03:46;4.87;;;3.90;;
7479;SDS011;3781;42.272;22.658;2023-08-24T20:06:20;4.87;;;3.80;;
7479;SDS011;3781;42.272;22.658;2023-08-24T20:08:48;6.40;;;3.53;;
7479;SDS011;3781;42.272;22.658;2023-08-24T20:11:15;6.37;;;4.17;;
7479;SDS011;3781;42.272;22.658;2023-08-24T20:13:43;6.83;;;4.37;;
7479;SDS011;3781;42.272;22.658;2023-08-24T20:16:09;5.63;;;3.40;;
7479;SDS011;3781;42.272;22.658;2023-08-24T20:18:39;5.90;;;3.83;;
7479;SDS011;3781;42.272;22.658;2023-08-24T20:21:07;8.13;;;3.37;;
7479;SDS011;3781;42.272;22.658;2023-08-24T20:23:34;6.17;;;3.43;;